Terminal Aerodrome Forecast
Issued by NWS

Home | Current Version | Previous Version | Text Only | Print | Product List | Glossary On
Versions: 1 2 3 4 5 6 7 8 9 10 11 12 13 14 15 16 17 18
429
FTUS43 KGRR 211406 AAB
TAFJXN
TAF AMD
KJXN 211406Z 2114/2212 16007KT 1/2SM FG VV002
     FM211600 17010KT 2SM BR OVC007
     FM211800 18009KT 4SM BR SCT015
     FM220400 20004KT 1/2SM FG OVC015
     FM220800 VRB03KT 1/4SM FG VV001=

USA.gov is the U.S. government's official web portal to all federal, state and local government web resources and services.